Time;durP1;ratioP1;P1;durP2;ratioP2;P2;SDS_P1;SDS_P2;PMS_P1;PMS_P2;Temp;Humidity;BMP_temperature;BMP_pressure;BME280_temperature;BME280_humidity;BME280_pressure;Samples;Min_cycle;Max_cycle;Signal;HPM_P1;HPM_P2
2022/06/19 00:01:49;;;;;;;129.35;124.82;;;20.40;99.90;;;;;;4963748;28;20212;-76
2022/06/19 00:04:15;;;;;;;128.68;123.95;;;20.50;99.90;;;;;;5010532;28;20190;-76
2022/06/19 00:06:42;;;;;;;127.22;122.70;;;20.50;99.90;;;;;;5005664;28;20637;-76
2022/06/19 00:09:08;;;;;;;127.82;123.03;;;20.40;99.90;;;;;;4988346;28;20325;-76
2022/06/19 00:11:36;;;;;;;124.93;120.38;;;20.40;99.90;;;;;;5005717;28;20219;-78
2022/06/19 00:14:03;;;;;;;129.65;125.05;;;20.40;99.90;;;;;;5012391;28;20183;-78
2022/06/19 00:16:28;;;;;;;144.50;138.75;;;20.30;99.90;;;;;;4996946;28;20605;-79
2022/06/19 00:18:54;;;;;;;137.43;132.18;;;20.20;99.90;;;;;;4993534;28;20256;-78
2022/06/19 00:21:20;;;;;;;143.60;138.23;;;20.30;99.90;;;;;;4977433;28;20234;-77
2022/06/19 00:23:46;;;;;;;137.93;131.95;;;20.30;99.90;;;;;;5004647;28;20282;-78
2022/06/19 00:26:13;;;;;;;136.07;131.20;;;20.40;99.90;;;;;;4983618;28;20195;-78
2022/06/19 00:28:44;;;;;;;138.05;132.57;;;20.40;99.90;;;;;;5005671;28;20187;-77
2022/06/19 00:31:10;;;;;;;140.60;135.40;;;20.40;99.90;;;;;;4992412;28;20183;-78
2022/06/19 00:33:36;;;;;;;139.48;134.57;;;20.30;99.90;;;;;;5001112;28;20192;-78
2022/06/19 00:36:02;;;;;;;146.65;141.23;;;20.30;99.90;;;;;;5002397;28;20183;-79
2022/06/19 00:38:28;;;;;;;142.27;136.88;;;20.20;99.90;;;;;;4980785;28;20196;-79
2022/06/19 00:40:58;;;;;;;152.43;146.75;;;20.00;99.90;;;;;;4998416;28;20227;-78
2022/06/19 00:43:24;;;;;;;155.10;149.38;;;19.80;99.90;;;;;;5004801;28;20203;-79
2022/06/19 00:45:51;;;;;;;182.07;174.50;;;19.70;99.90;;;;;;5012386;28;20183;-79
2022/06/19 00:48:21;;;;;;;154.25;148.48;;;19.90;99.90;;;;;;4981549;28;20192;-76
2022/06/19 00:50:50;;;;;;;158.80;152.60;;;19.80;99.90;;;;;;4997066;28;20179;-76
2022/06/19 00:53:37;;;;;;;158.80;152.55;;;19.80;99.90;;;;;;5012790;28;20218;-75
2022/06/19 00:56:03;;;;;;;219.65;208.23;;;19.80;99.90;;;;;;5013670;28;20285;-76
2022/06/19 00:58:37;;;;;;;198.68;190.68;;;19.70;99.90;;;;;;4979261;28;20548;-76
2022/06/19 01:01:12;;;;;;;247.02;233.32;;;19.30;99.90;;;;;;5009491;28;20211;-77
2022/06/19 01:03:49;;;;;;;188.05;180.52;;;19.20;99.90;;;;;;4995341;28;20703;-78
2022/06/19 01:06:15;;;;;;;169.60;162.95;;;19.40;99.90;;;;;;5008951;28;20190;-77
2022/06/19 01:08:41;;;;;;;218.55;209.40;;;19.20;99.90;;;;;;4965973;28;20195;-77
2022/06/19 01:11:08;;;;;;;166.48;159.82;;;19.20;99.90;;;;;;4987120;28;20187;-75
2022/06/19 01:13:34;;;;;;;238.25;227.60;;;19.20;99.90;;;;;;4993370;28;20199;-77
2022/06/19 01:16:02;;;;;;;204.10;195.88;;;19.10;99.90;;;;;;4988743;28;20215;-76
2022/06/19 01:18:30;;;;;;;265.05;253.73;;;19.00;99.90;;;;;;4995454;28;20241;-76
2022/06/19 01:21:00;;;;;;;235.02;224.60;;;19.00;99.90;;;;;;4997574;28;20219;-75
2022/06/19 01:23:29;;;;;;;212.32;203.45;;;18.90;99.90;;;;;;5011383;28;20195;-75
2022/06/19 01:25:55;;;;;;;231.65;221.88;;;18.90;99.90;;;;;;5015038;28;20664;-76
2022/06/19 01:28:46;;;;;;;197.95;190.02;;;19.00;99.90;;;;;;4994093;28;20196;-76
2022/06/19 01:31:16;;;;;;;175.82;168.05;;;19.00;99.90;;;;;;5015402;28;20655;-75
2022/06/19 01:33:50;;;;;;;167.30;161.07;;;19.00;99.90;;;;;;4994868;28;20602;-74
2022/06/19 01:36:19;;;;;;;207.15;198.55;;;18.90;99.90;;;;;;5008968;28;20183;-77
2022/06/19 01:38:49;;;;;;;489.48;463.35;;;18.90;99.90;;;;;;4999920;28;20184;-79
2022/06/19 01:41:23;;;;;;;263.05;252.45;;;18.70;99.90;;;;;;5012939;28;20215;-75
2022/06/19 01:43:48;;;;;;;297.80;285.80;;;18.50;99.90;;;;;;5010139;28;20187;-74
2022/06/19 01:46:16;;;;;;;405.83;385.60;;;18.50;99.90;;;;;;4996286;28;20187;-74
2022/06/19 01:48:42;;;;;;;377.88;361.42;;;18.40;99.90;;;;;;4997104;28;20196;-74
2022/06/19 01:51:08;;;;;;;555.58;529.95;;;18.30;99.90;;;;;;5013657;28;20179;-76
2022/06/19 01:53:39;;;;;;;642.80;610.33;;;18.30;99.90;;;;;;4987530;28;20223;-75
2022/06/19 01:56:07;;;;;;;608.13;578.45;;;18.20;99.90;;;;;;4980844;28;20183;-73
2022/06/19 01:58:36;;;;;;;802.20;751.75;;;18.20;99.90;;;;;;5019537;28;20179;-77
2022/06/19 02:01:05;;;;;;;906.50;847.33;;;18.20;99.90;;;;;;5005509;28;20551;-77
2022/06/19 02:03:41;;;;;;;849.45;798.28;;;18.00;99.90;;;;;;4993558;28;20577;-73
2022/06/19 02:06:09;;;;;;;819.78;771.60;;;17.90;99.90;;;;;;5011657;28;20657;-74
2022/06/19 02:08:35;;;;;;;847.72;796.63;;;18.00;99.90;;;;;;5017815;28;20268;-76
2022/06/19 02:11:03;;;;;;;878.45;823.85;;;18.00;99.90;;;;;;5008736;28;20654;-76
2022/06/19 02:13:31;;;;;;;850.03;798.85;;;18.20;99.90;;;;;;5003502;28;20200;-75
2022/06/19 02:15:57;;;;;;;880.35;826.20;;;18.10;99.90;;;;;;5012305;28;20585;-77
2022/06/19 02:18:28;;;;;;;910.17;852.45;;;18.20;99.90;;;;;;4994556;28;20183;-74
2022/06/19 02:20:54;;;;;;;940.78;879.97;;;18.00;99.90;;;;;;5004297;28;20184;-75
2022/06/19 02:23:25;;;;;;;910.67;853.58;;;18.00;99.90;;;;;;5029798;28;20196;-74
2022/06/19 02:25:51;;;;;;;940.65;880.03;;;18.00;99.90;;;;;;4993795;28;20556;-75
2022/06/19 02:28:18;;;;;;;924.35;864.20;;;18.10;99.90;;;;;;4981803;28;20544;-76
2022/06/19 02:30:47;;;;;;;1015.38;946.42;;;17.90;99.90;;;;;;5000710;28;20258;-75
2022/06/19 02:33:16;;;;;;;1020.47;949.85;;;17.70;99.90;;;;;;5013813;28;20176;-76
2022/06/19 02:35:41;;;;;;;1127.05;999.90;;;17.70;99.90;;;;;;5011813;28;20180;-78
2022/06/19 02:38:07;;;;;;;1113.50;999.90;;;17.60;99.90;;;;;;4991386;28;20195;-76
2022/06/19 02:40:59;;;;;;;1136.72;999.90;;;17.60;99.90;;;;;;5013173;28;20195;-77
2022/06/19 02:43:30;;;;;;;1134.85;999.90;;;17.40;99.90;;;;;;4996033;28;20195;-77
2022/06/19 02:45:56;;;;;;;1145.63;999.90;;;17.40;99.90;;;;;;5003347;28;20214;-78
2022/06/19 02:48:28;;;;;;;1132.65;999.90;;;17.40;99.90;;;;;;5013634;28;20183;-78
2022/06/19 02:50:55;;;;;;;1154.22;999.90;;;17.40;99.90;;;;;;5008222;28;20209;-77
2022/06/19 02:53:22;;;;;;;1087.32;999.90;;;17.40;99.90;;;;;;4994839;28;20207;-75
2022/06/19 02:55:48;;;;;;;1119.63;999.90;;;17.50;99.90;;;;;;4999892;28;20656;-79
2022/06/19 02:58:16;;;;;;;1157.45;999.90;;;17.50;99.90;;;;;;4991194;28;20186;-68
2022/06/19 03:00:42;;;;;;;1112.00;999.90;;;17.50;99.90;;;;;;4991377;28;20564;-78
2022/06/19 03:03:16;;;;;;;1129.20;999.90;;;17.30;99.90;;;;;;4963053;28;20184;-79
2022/06/19 03:05:42;;;;;;;1134.30;999.90;;;17.20;99.90;;;;;;5006150;28;20183;-77
2022/06/19 03:08:08;;;;;;;1101.47;999.90;;;17.20;99.90;;;;;;4999669;28;20199;-79
2022/06/19 03:10:35;;;;;;;1100.40;999.90;;;17.00;99.90;;;;;;4995542;28;20277;-77
2022/06/19 03:13:00;;;;;;;1069.85;993.15;;;16.90;99.90;;;;;;4981743;28;20321;-77
2022/06/19 03:15:26;;;;;;;1059.47;985.08;;;16.90;99.90;;;;;;4987703;28;20649;-76
2022/06/19 03:17:52;;;;;;;1066.82;992.00;;;16.90;99.90;;;;;;4999919;28;20191;-77
2022/06/19 03:20:21;;;;;;;1051.13;978.42;;;17.00;99.90;;;;;;5007368;28;20217;-76
2022/06/19 03:22:47;;;;;;;980.85;914.97;;;17.10;99.90;;;;;;5031103;28;20222;-78
2022/06/19 03:25:13;;;;;;;1003.58;936.13;;;17.10;99.90;;;;;;4998813;28;20221;-79
2022/06/19 03:27:39;;;;;;;1042.93;971.13;;;17.10;99.90;;;;;;5005792;28;20556;-76
2022/06/19 03:30:06;;;;;;;1053.00;979.75;;;17.00;99.90;;;;;;4975874;28;20192;-76
2022/06/19 03:32:32;;;;;;;1044.80;972.55;;;17.00;99.90;;;;;;5011686;28;20270;-77
2022/06/19 03:34:58;;;;;;;1056.30;981.42;;;16.90;99.90;;;;;;4995286;28;20326;-77
2022/06/19 03:37:23;;;;;;;1025.10;953.55;;;16.80;99.90;;;;;;5003435;28;20183;-78
2022/06/19 03:39:50;;;;;;;1082.15;999.90;;;16.70;99.90;;;;;;5007874;28;20184;-79
2022/06/19 03:42:16;;;;;;;1056.78;978.85;;;16.60;99.90;;;;;;4983076;28;20303;-78
2022/06/19 03:44:42;;;;;;;1074.20;996.80;;;16.50;99.90;;;;;;4994884;28;20274;-77
2022/06/19 03:47:08;;;;;;;1076.22;998.65;;;16.60;99.90;;;;;;5005207;28;20657;-78
2022/06/19 03:49:33;;;;;;;1093.30;999.90;;;16.50;99.90;;;;;;4999355;28;20195;-78
2022/06/19 03:51:59;;;;;;;1080.30;999.90;;;16.60;99.90;;;;;;4996000;28;20597;-79
2022/06/19 03:54:25;;;;;;;1120.97;999.90;;;16.60;99.90;;;;;;5011854;28;20195;-77
2022/06/19 03:56:51;;;;;;;1098.57;999.90;;;16.60;99.90;;;;;;4990374;28;20187;-78
2022/06/19 03:59:16;;;;;;;1118.30;999.90;;;16.60;99.90;;;;;;5012055;28;20609;-76
2022/06/19 04:01:42;;;;;;;1142.95;999.90;;;16.80;99.90;;;;;;4995569;28;20218;-77
2022/06/19 04:04:10;;;;;;;1178.78;999.90;;;16.90;99.90;;;;;;5005300;28;20558;-79
2022/06/19 04:06:38;;;;;;;1182.70;999.90;;;16.90;99.90;;;;;;5009362;28;20199;-77
2022/06/19 04:09:06;;;;;;;1223.97;999.90;;;16.80;99.90;;;;;;5009575;28;20192;-78
2022/06/19 04:11:32;;;;;;;1213.72;999.90;;;16.70;99.90;;;;;;4973589;28;20250;-77
2022/06/19 04:13:58;;;;;;;1238.93;999.90;;;16.70;99.90;;;;;;4986854;28;20199;-79
2022/06/19 04:16:27;;;;;;;1259.68;999.90;;;16.70;99.90;;;;;;5003634;28;20192;-77
2022/06/19 04:18:54;;;;;;;1207.50;999.90;;;16.70;99.90;;;;;;5033805;28;20654;-76
2022/06/19 04:21:22;;;;;;;1247.43;999.90;;;16.80;99.90;;;;;;5013130;28;20261;-77
2022/06/19 04:23:53;;;;;;;1256.45;999.90;;;16.90;99.90;;;;;;4999145;28;20271;-78
2022/06/19 04:26:20;;;;;;;1252.80;999.90;;;17.00;99.90;;;;;;4989513;28;20649;-78
2022/06/19 04:28:45;;;;;;;1271.43;999.90;;;17.10;99.90;;;;;;5017278;28;20196;-78
2022/06/19 04:31:11;;;;;;;1268.68;999.90;;;17.10;99.90;;;;;;4995702;28;20188;-77
2022/06/19 04:33:39;;;;;;;1257.05;999.90;;;16.90;99.90;;;;;;4985759;28;20188;-78
2022/06/19 04:36:07;;;;;;;1264.40;999.90;;;17.00;99.90;;;;;;4983497;28;20714;-78
2022/06/19 04:38:33;;;;;;;1261.90;999.90;;;17.00;99.90;;;;;;5006058;28;20585;-79
2022/06/19 04:40:59;;;;;;;1250.10;999.90;;;17.00;99.90;;;;;;4989853;28;20215;-78
2022/06/19 04:43:24;;;;;;;1249.25;999.90;;;17.00;99.90;;;;;;4999500;28;20191;-77
2022/06/19 04:45:50;;;;;;;1259.82;999.90;;;17.30;99.90;;;;;;5003267;28;20206;-79
2022/06/19 04:48:16;;;;;;;1257.95;999.90;;;17.50;99.90;;;;;;4993670;28;20219;-79
2022/06/19 04:50:42;;;;;;;1265.93;999.90;;;17.30;99.90;;;;;;5010325;28;20188;-79
2022/06/19 04:53:08;;;;;;;1218.88;999.90;;;17.20;99.90;;;;;;4997800;28;20209;-77
2022/06/19 04:55:33;;;;;;;1149.57;999.90;;;17.00;99.90;;;;;;4998089;28;20203;-77
2022/06/19 04:58:01;;;;;;;1062.97;986.33;;;16.60;99.90;;;;;;5014926;28;20651;-76
2022/06/19 05:00:26;;;;;;;979.42;912.47;;;16.30;99.90;;;;;;4994762;28;20241;-75
2022/06/19 05:02:52;;;;;;;909.00;850.03;;;16.10;99.90;;;;;;4986757;28;20227;-76
2022/06/19 05:05:20;;;;;;;948.08;885.05;;;16.00;99.90;;;;;;4998189;28;20191;-75
2022/06/19 05:07:45;;;;;;;871.17;815.80;;;16.00;99.90;;;;;;5014848;28;20183;-75
2022/06/19 05:10:11;;;;;;;847.50;796.45;;;16.20;99.90;;;;;;5007951;28;20191;-75
2022/06/19 05:12:38;;;;;;;922.75;863.47;;;16.20;99.90;;;;;;4974908;28;20202;-76
2022/06/19 05:15:05;;;;;;;854.08;801.72;;;16.20;99.90;;;;;;5014624;28;20184;-76
2022/06/19 05:17:31;;;;;;;820.42;771.13;;;16.20;99.90;;;;;;5006190;28;20190;-76
2022/06/19 05:19:57;;;;;;;834.60;784.13;;;16.30;99.90;;;;;;4975765;28;20700;-76
2022/06/19 05:22:22;;;;;;;777.97;732.17;;;16.50;99.90;;;;;;4992434;28;20361;-76
2022/06/19 05:24:48;;;;;;;754.38;711.30;;;16.70;99.90;;;;;;4988535;28;20641;-76
2022/06/19 05:27:14;;;;;;;734.55;692.97;;;16.90;99.90;;;;;;4975061;28;20192;-76
2022/06/19 05:29:40;;;;;;;710.00;671.17;;;17.30;99.90;;;;;;5005293;28;20195;-76
2022/06/19 05:32:06;;;;;;;713.15;674.17;;;17.60;99.90;;;;;;4981831;28;20603;-76
2022/06/19 05:34:33;;;;;;;804.20;756.80;;;17.80;99.90;;;;;;5018212;28;20191;-76
2022/06/19 05:36:59;;;;;;;784.47;739.10;;;18.10;99.90;;;;;;5007390;28;20184;-76
2022/06/19 05:39:25;;;;;;;751.30;708.30;;;18.20;99.90;;;;;;5027251;28;20202;-76
2022/06/19 05:41:52;;;;;;;763.13;720.05;;;18.10;99.90;;;;;;4996348;28;20223;-77
2022/06/19 05:44:19;;;;;;;804.45;757.03;;;18.10;99.90;;;;;;5001142;28;20278;-76
2022/06/19 05:46:47;;;;;;;861.83;808.70;;;18.10;99.90;;;;;;5017716;28;20768;-77
2022/06/19 05:49:13;;;;;;;887.53;831.75;;;18.00;99.90;;;;;;5014255;28;20222;-75
2022/06/19 05:51:39;;;;;;;890.45;834.88;;;17.90;99.90;;;;;;5011748;28;20191;-75
2022/06/19 05:54:04;;;;;;;847.97;796.45;;;17.80;99.90;;;;;;4993550;28;20218;-76
2022/06/19 05:56:30;;;;;;;863.88;810.28;;;17.40;99.90;;;;;;4984036;28;20246;-76
2022/06/19 05:58:56;;;;;;;855.80;802.90;;;17.30;99.90;;;;;;5006934;28;20194;-75
2022/06/19 06:01:22;;;;;;;781.05;735.92;;;17.40;99.90;;;;;;5014147;28;20211;-75
2022/06/19 06:03:48;;;;;;;828.80;779.03;;;17.50;99.90;;;;;;5014724;28;20286;-75
2022/06/19 06:06:17;;;;;;;828.97;779.15;;;17.50;99.90;;;;;;5012814;28;20183;-75
2022/06/19 06:08:43;;;;;;;830.42;780.08;;;17.50;99.90;;;;;;5008462;28;20265;-75
2022/06/19 06:11:10;;;;;;;796.78;750.22;;;17.50;99.90;;;;;;4985514;28;20221;-75
2022/06/19 06:13:36;;;;;;;752.30;709.47;;;17.60;99.90;;;;;;4989216;28;20184;-75
2022/06/19 06:16:02;;;;;;;731.30;691.10;;;17.50;99.90;;;;;;4996681;28;20202;-76
2022/06/19 06:18:28;;;;;;;826.00;776.42;;;17.40;99.90;;;;;;5028505;28;20179;-76
2022/06/19 06:20:55;;;;;;;869.88;816.15;;;17.40;99.90;;;;;;5017372;28;20192;-76
2022/06/19 06:23:22;;;;;;;881.90;826.88;;;17.30;99.90;;;;;;4998768;28;20198;-76
2022/06/19 06:25:48;;;;;;;898.58;841.75;;;17.20;99.90;;;;;;5023731;28;20184;-76
2022/06/19 06:28:14;;;;;;;967.70;904.17;;;17.10;99.90;;;;;;5012496;28;20554;-76
2022/06/19 06:30:40;;;;;;;1014.03;945.83;;;16.90;99.90;;;;;;5012663;28;20188;-75
2022/06/19 06:33:06;;;;;;;961.97;897.88;;;16.60;99.90;;;;;;4976696;28;20188;-75
2022/06/19 06:35:32;;;;;;;865.97;812.63;;;16.20;99.90;;;;;;4995435;28;20194;-75
2022/06/19 06:37:59;;;;;;;826.10;776.42;;;16.00;99.90;;;;;;4991884;28;20194;-75
2022/06/19 06:40:25;;;;;;;776.45;732.45;;;15.80;99.90;;;;;;4994137;28;20195;-76
2022/06/19 06:42:51;;;;;;;717.20;678.92;;;15.30;99.90;;;;;;4967152;28;20295;-76
2022/06/19 06:45:17;;;;;;;717.60;675.50;;;14.90;99.90;;;;;;5025763;28;20720;-75
2022/06/19 06:47:43;;;;;;;510.00;486.15;;;14.80;99.90;;;;;;4980161;28;20195;-75
2022/06/19 06:50:09;;;;;;;650.75;614.28;;;14.70;99.90;;;;;;5001115;28;20231;-77
2022/06/19 06:52:35;;;;;;;443.17;418.55;;;14.50;99.90;;;;;;4978729;28;20261;-77
2022/06/19 06:55:00;;;;;;;326.83;312.98;;;14.50;99.90;;;;;;4995538;28;20274;-77
2022/06/19 06:57:26;;;;;;;420.75;404.75;;;14.90;99.90;;;;;;4971065;28;20198;-77
2022/06/19 06:59:52;;;;;;;389.70;374.65;;;15.20;99.90;;;;;;4979708;28;20239;-76
2022/06/19 07:02:17;;;;;;;407.50;391.90;;;15.30;99.90;;;;;;4987108;28;20353;-76
2022/06/19 07:04:43;;;;;;;405.77;389.83;;;15.30;99.90;;;;;;4991683;28;20183;-77
2022/06/19 07:07:08;;;;;;;363.65;349.85;;;15.30;99.90;;;;;;4989474;28;20202;-76
2022/06/19 07:09:34;;;;;;;352.58;339.30;;;15.30;99.90;;;;;;4978990;28;20191;-77
2022/06/19 07:12:01;;;;;;;359.92;345.58;;;15.40;99.90;;;;;;5003031;28;20196;-77
2022/06/19 07:14:28;;;;;;;380.33;365.73;;;15.60;99.90;;;;;;4994950;28;20198;-77
2022/06/19 07:16:53;;;;;;;353.77;340.08;;;15.70;99.90;;;;;;4963229;28;20195;-76
2022/06/19 07:19:19;;;;;;;283.83;273.48;;;15.90;99.90;;;;;;4978714;28;20187;-76
2022/06/19 07:21:45;;;;;;;276.85;266.27;;;15.90;99.90;;;;;;4993440;28;20301;-76
2022/06/19 07:24:10;;;;;;;275.35;264.48;;;15.90;99.90;;;;;;4978882;28;20302;-74
2022/06/19 07:26:36;;;;;;;264.52;254.50;;;15.90;99.90;;;;;;5009379;28;20186;-75
2022/06/19 07:29:03;;;;;;;250.27;240.80;;;16.00;99.90;;;;;;4993656;28;20199;-74
2022/06/19 07:31:28;;;;;;;259.75;249.73;;;16.00;99.90;;;;;;5013175;28;20195;-73
2022/06/19 07:33:57;;;;;;;260.95;250.65;;;15.90;99.90;;;;;;5001025;28;20283;-73
2022/06/19 07:36:23;;;;;;;267.95;257.08;;;15.90;99.90;;;;;;4978825;28;20188;-75
2022/06/19 07:38:50;;;;;;;301.17;288.45;;;15.60;99.90;;;;;;5017676;28;20187;-73
2022/06/19 07:41:15;;;;;;;284.23;272.00;;;15.10;99.90;;;;;;5026964;28;20207;-73
2022/06/19 07:43:43;;;;;;;294.02;281.35;;;15.00;99.90;;;;;;5007000;28;20191;-73
2022/06/19 07:46:09;;;;;;;303.70;290.77;;;14.90;99.90;;;;;;5022795;28;20194;-74
2022/06/19 07:51:19;;;;;;;380.23;362.30;;;14.60;99.90;;;;;;5008748;28;20214;-74
2022/06/19 07:53:45;;;;;;;379.88;363.13;;;14.70;99.90;;;;;;4993942;28;20282;-74
2022/06/19 07:56:11;;;;;;;408.65;389.02;;;14.80;99.90;;;;;;5024764;28;20187;-74
2022/06/19 07:58:37;;;;;;;451.40;429.15;;;14.90;99.90;;;;;;4968721;28;20192;-74
2022/06/19 08:01:03;;;;;;;489.05;464.25;;;15.00;99.90;;;;;;4999463;28;20215;-75
2022/06/19 08:03:29;;;;;;;731.35;687.97;;;15.20;99.90;;;;;;5000389;28;20533;-75
2022/06/19 08:05:54;;;;;;;800.08;749.30;;;15.30;99.90;;;;;;4995139;28;20245;-74
2022/06/19 08:08:27;;;;;;;889.85;831.13;;;15.30;99.90;;;;;;5007434;28;20186;-74
2022/06/19 08:10:54;;;;;;;980.45;909.58;;;15.20;99.90;;;;;;4997614;28;20186;-74
2022/06/19 08:13:26;;;;;;;1011.25;940.20;;;15.30;99.90;;;;;;5000989;28;20655;-73
2022/06/19 08:15:57;;;;;;;1025.43;950.75;;;15.60;99.90;;;;;;5020391;28;20183;-75
2022/06/19 08:18:24;;;;;;;1092.20;999.90;;;16.00;99.90;;;;;;5028751;28;20173;-75
2022/06/19 08:20:51;;;;;;;1121.18;999.90;;;16.50;99.90;;;;;;5022829;28;20190;-74
2022/06/19 08:23:17;;;;;;;1157.38;999.90;;;16.80;99.90;;;;;;4985241;28;20254;-74
2022/06/19 08:25:43;;;;;;;1158.53;999.90;;;16.90;99.90;;;;;;5018804;28;20182;-74
2022/06/19 08:28:09;;;;;;;1167.38;999.90;;;16.80;99.90;;;;;;5016038;28;20183;-75
2022/06/19 08:30:40;;;;;;;1187.45;999.90;;;17.00;99.90;;;;;;4996669;28;20198;-74
2022/06/19 08:33:07;;;;;;;1240.97;999.90;;;17.20;99.90;;;;;;5011606;28;20183;-73
2022/06/19 08:35:39;;;;;;;1241.75;999.90;;;17.40;99.90;;;;;;4970972;28;20196;-75
2022/06/19 08:38:09;;;;;;;1281.78;999.90;;;17.80;99.90;;;;;;5007372;28;20190;-75
2022/06/19 08:40:49;;;;;;;1308.60;999.90;;;17.70;99.90;;;;;;5003769;28;20188;-76
2022/06/19 08:43:52;;;;;;;1302.35;999.90;;;17.50;99.90;;;;;;4994409;28;20218;-74
2022/06/19 08:46:37;;;;;;;1299.97;999.90;;;17.50;99.90;;;;;;5010675;28;20187;-73
2022/06/19 08:49:25;;;;;;;1284.05;999.90;;;17.20;99.90;;;;;;5009301;28;20215;-73
2022/06/19 08:52:25;;;;;;;1282.18;999.90;;;17.40;99.90;;;;;;4984281;28;20582;-73
2022/06/19 08:55:11;;;;;;;1239.50;999.90;;;17.40;99.90;;;;;;5011178;28;20270;-73
2022/06/19 08:58:01;;;;;;;1301.03;999.90;;;17.60;99.90;;;;;;4984095;28;20191;-76
2022/06/19 09:00:52;;;;;;;1262.50;999.90;;;17.50;99.90;;;;;;4987870;28;20254;-73
2022/06/19 09:07:02;;;;;;;1303.45;999.90;;;17.30;99.90;;;;;;5012540;28;20183;-76
2022/06/19 09:09:39;;;;;;;1266.25;999.90;;;17.40;99.90;;;;;;5004994;28;20226;-75
2022/06/19 09:12:05;;;;;;;1288.90;999.90;;;17.30;99.90;;;;;;5013228;28;20670;-74
2022/06/19 09:14:45;;;;;;;1273.55;999.90;;;17.20;99.90;;;;;;4999291;28;20183;-74
2022/06/19 09:17:25;;;;;;;1279.30;999.90;;;17.30;99.90;;;;;;4986849;28;20179;-76
2022/06/19 09:20:12;;;;;;;1296.15;999.90;;;17.50;99.90;;;;;;5012803;28;20192;-75
2022/06/19 09:22:46;;;;;;;1282.88;999.90;;;17.70;99.90;;;;;;5016339;28;20230;-76
2022/06/19 09:25:40;;;;;;;1267.22;999.90;;;17.90;99.90;;;;;;4983278;28;20278;-75
2022/06/19 09:28:17;;;;;;;1282.40;999.90;;;18.40;99.90;;;;;;5007811;28;20183;-73
2022/06/19 09:30:52;;;;;;;1287.00;999.90;;;18.40;99.90;;;;;;4996875;28;20198;-76
2022/06/19 09:33:32;;;;;;;1276.50;999.90;;;17.80;99.90;;;;;;5004570;28;20192;-74
2022/06/19 09:36:07;;;;;;;1282.50;999.90;;;17.60;99.90;;;;;;5014322;28;20711;-75
2022/06/19 09:38:45;;;;;;;1289.65;999.90;;;17.60;99.90;;;;;;4996580;28;20282;-75
2022/06/19 09:41:18;;;;;;;1287.65;999.90;;;17.60;99.90;;;;;;4995671;28;20183;-74
2022/06/19 09:43:58;;;;;;;1298.05;999.90;;;17.60;99.90;;;;;;5016987;28;20184;-75
2022/06/19 09:46:34;;;;;;;1286.00;999.90;;;17.60;99.90;;;;;;5006604;28;20186;-72
2022/06/19 09:49:48;;;;;;;1300.43;999.90;;;17.70;99.90;;;;;;5013782;28;20179;-73
2022/06/19 09:52:19;;;;;;;1311.45;999.90;;;17.60;99.90;;;;;;4980744;28;20295;-75
2022/06/19 09:54:51;;;;;;;1290.25;999.90;;;17.50;99.90;;;;;;5003671;28;20715;-75
2022/06/19 09:57:29;;;;;;;1260.00;999.90;;;17.60;99.90;;;;;;4999239;28;20206;-75
2022/06/19 10:00:02;;;;;;;1259.03;999.90;;;17.80;99.90;;;;;;5009145;28;20186;-76
2022/06/19 10:02:48;;;;;;;1289.93;999.90;;;18.00;99.90;;;;;;4998932;28;20228;-76
2022/06/19 10:05:32;;;;;;;1262.43;999.90;;;18.10;99.90;;;;;;4985754;28;20214;-76
2022/06/19 10:08:40;;;;;;;1246.15;999.90;;;18.10;99.90;;;;;;5001618;28;20198;-77
2022/06/19 10:11:13;;;;;;;1244.20;999.90;;;18.20;99.90;;;;;;5011092;28;20179;-77
2022/06/19 10:13:57;;;;;;;1243.35;999.90;;;18.00;99.90;;;;;;5003981;28;20233;-76
2022/06/19 10:16:27;;;;;;;1257.38;999.90;;;18.00;99.90;;;;;;4996310;28;20190;-76
2022/06/19 10:18:55;;;;;;;1253.82;999.90;;;17.80;99.90;;;;;;5013989;28;20187;-76
2022/06/19 10:24:16;;;;;;;1207.38;999.90;;;18.00;99.90;;;;;;5005793;28;20238;-76
2022/06/19 10:26:52;;;;;;;1231.38;999.90;;;18.50;99.90;;;;;;5027265;28;20195;-77
2022/06/19 10:29:30;;;;;;;1247.95;999.90;;;18.80;99.90;;;;;;4983366;28;20199;-77
2022/06/19 10:32:05;;;;;;;1247.47;999.90;;;19.10;99.90;;;;;;5007727;28;20184;-78
2022/06/19 10:34:42;;;;;;;1234.47;999.90;;;19.30;99.90;;;;;;5013395;28;20632;-80
2022/06/19 10:37:37;;;;;;;1242.30;999.90;;;19.40;99.90;;;;;;5022060;28;20655;-78
2022/06/19 10:40:32;;;;;;;1255.78;999.90;;;19.30;99.90;;;;;;4993338;28;20179;-78
2022/06/19 10:43:30;;;;;;;1242.53;999.90;;;19.60;99.90;;;;;;5000662;28;20210;-78
2022/06/19 10:46:03;;;;;;;1222.93;999.90;;;20.10;99.90;;;;;;5026377;28;20183;-78
2022/06/19 10:48:40;;;;;;;1222.50;999.90;;;20.20;99.90;;;;;;5003104;28;20186;-78
2022/06/19 10:51:35;;;;;;;1249.00;999.90;;;20.30;99.90;;;;;;4987262;28;20179;-78
2022/06/19 10:54:01;;;;;;;1243.22;999.90;;;20.70;99.90;;;;;;4990551;28;20226;-80
2022/06/19 10:56:48;;;;;;;1142.75;999.90;;;20.80;99.90;;;;;;4976574;28;20551;-76
2022/06/19 10:59:14;;;;;;;1227.38;999.90;;;20.60;99.90;;;;;;5010438;28;20183;-78
2022/06/19 11:05:13;;;;;;;1215.00;999.90;;;20.40;99.90;;;;;;5011326;28;20194;-78
2022/06/19 11:07:40;;;;;;;1059.28;948.50;;;20.00;99.90;;;;;;5009301;28;20199;-78
2022/06/19 11:10:16;;;;;;;1266.95;999.90;;;20.20;99.90;;;;;;5007271;28;20279;-78
2022/06/19 11:12:49;;;;;;;1254.82;999.90;;;20.40;99.90;;;;;;4976480;28;20183;-79
2022/06/19 11:15:32;;;;;;;1260.45;999.90;;;20.40;99.90;;;;;;4999869;28;20641;-78
2022/06/19 11:18:11;;;;;;;1219.32;999.90;;;20.40;99.90;;;;;;5012442;28;20187;-79
2022/06/19 11:20:39;;;;;;;1233.13;999.90;;;20.40;99.90;;;;;;4994585;28;20191;-79
2022/06/19 11:23:30;;;;;;;1218.93;999.90;;;20.20;99.90;;;;;;4994883;28;20215;-79
2022/06/19 11:26:08;;;;;;;1217.82;999.90;;;20.50;99.90;;;;;;5005337;28;20192;-79
2022/06/19 11:28:59;;;;;;;1247.72;999.90;;;20.40;99.90;;;;;;4993272;28;20198;-79
2022/06/19 11:31:31;;;;;;;1241.50;999.90;;;20.90;99.90;;;;;;4995061;28;20254;-79
2022/06/19 11:34:43;;;;;;;1170.40;999.90;;;21.60;99.90;;;;;;5007910;28;20224;-79
2022/06/19 11:36:49;;;;;;;1381.45;999.90;;;22.40;99.90;;;;;;5010487;28;20197;-79
2022/06/19 11:39:37;;;;;;;1999.90;999.90;;;22.80;99.90;;;;;;4985638;28;20202;-79
2022/06/19 11:42:24;;;;;;;1999.90;999.90;;;23.00;99.90;;;;;;5012904;28;20294;-80
2022/06/19 11:44:53;;;;;;;1999.90;999.90;;;23.00;99.90;;;;;;5000413;28;20195;-79
2022/06/19 11:47:27;;;;;;;1999.90;999.90;;;22.50;99.90;;;;;;4991817;28;20184;-79
2022/06/19 11:50:14;;;;;;;1999.90;999.90;;;22.20;99.90;;;;;;5012347;28;20189;-80
2022/06/19 11:52:54;;;;;;;1999.90;999.90;;;21.60;99.90;;;;;;5012582;28;20211;-79
2022/06/19 11:55:29;;;;;;;1999.90;999.90;;;21.40;99.90;;;;;;5012608;28;20179;-79
2022/06/19 11:58:01;;;;;;;1999.90;999.90;;;21.30;99.90;;;;;;5012176;28;20186;-79
2022/06/19 12:00:34;;;;;;;1225.95;676.15;;;21.30;99.90;;;;;;4997943;28;20187;-79
2022/06/19 12:03:06;;;;;;;1999.90;999.90;;;21.10;99.90;;;;;;5006281;28;20314;-79
2022/06/19 12:05:36;;;;;;;1999.90;999.90;;;21.10;99.90;;;;;;5003847;28;20175;-79
2022/06/19 12:08:27;;;;;;;1999.90;999.90;;;21.20;99.90;;;;;;4997080;28;20312;-79
2022/06/19 12:10:57;;;;;;;1999.90;999.90;;;21.40;99.90;;;;;;4990161;28;20214;-79
2022/06/19 12:13:28;;;;;;;1999.90;999.90;;;21.60;99.90;;;;;;5017565;28;20191;-79
2022/06/19 12:16:10;;;;;;;1999.90;999.90;;;21.90;99.90;;;;;;4994666;28;20175;-78
2022/06/19 12:18:36;;;;;;;1999.90;999.90;;;22.20;99.90;;;;;;5000101;28;20506;-79
2022/06/19 12:21:23;;;;;;;1999.90;999.90;;;22.40;99.90;;;;;;4975177;28;20251;-79
2022/06/19 12:24:07;;;;;;;1999.90;999.90;;;22.80;99.90;;;;;;4983915;28;20210;-79
2022/06/19 12:26:44;;;;;;;1999.90;999.90;;;22.50;99.90;;;;;;5012260;28;20215;-79
2022/06/19 12:29:20;;;;;;;1999.90;999.90;;;22.20;99.90;;;;;;5004509;28;20234;-78
2022/06/19 12:31:46;;;;;;;1999.90;999.90;;;22.20;99.90;;;;;;5012305;28;20722;-78
2022/06/19 12:34:39;;;;;;;1999.90;999.90;;;22.50;99.90;;;;;;5014825;28;20183;-78